sensor_id;sensor_type;location;lat;lon;timestamp;pressure;altitude;pressure_sealevel;temperature;humidity
70127;BME280;57491;42.694;23.314;2023-05-24T00:00:17;94952.84;;;15.58;63.32
70127;BME280;57491;42.694;23.314;2023-05-24T00:02:44;94945.22;;;15.56;63.06
70127;BME280;57491;42.694;23.314;2023-05-24T00:05:11;94950.69;;;15.48;63.67
70127;BME280;57491;42.694;23.314;2023-05-24T00:07:41;94948.47;;;15.45;63.33
70127;BME280;57491;42.694;23.314;2023-05-24T00:10:11;94953.28;;;15.48;63.98
70127;BME280;57491;42.694;23.314;2023-05-24T00:12:38;94946.28;;;15.42;63.27
70127;BME280;57491;42.694;23.314;2023-05-24T00:15:06;94951.94;;;15.39;63.37
70127;BME280;57491;42.694;23.314;2023-05-24T00:17:33;94956.00;;;15.35;62.90
70127;BME280;57491;42.694;23.314;2023-05-24T00:20:08;94948.38;;;15.27;63.81
70127;BME280;57491;42.694;23.314;2023-05-24T00:22:36;94949.78;;;15.30;64.57
70127;BME280;57491;42.694;23.314;2023-05-24T00:25:04;94945.56;;;15.29;64.33
70127;BME280;57491;42.694;23.314;2023-05-24T00:27:32;94950.78;;;15.29;64.30
70127;BME280;57491;42.694;23.314;2023-05-24T00:30:02;94947.38;;;15.28;64.22
70127;BME280;57491;42.694;23.314;2023-05-24T00:32:29;94939.94;;;15.25;64.37
70127;BME280;57491;42.694;23.314;2023-05-24T00:34:56;94935.88;;;15.29;64.31
70127;BME280;57491;42.694;23.314;2023-05-24T00:37:23;94935.31;;;15.21;64.91
70127;BME280;57491;42.694;23.314;2023-05-24T00:39:50;94938.13;;;15.26;64.53
70127;BME280;57491;42.694;23.314;2023-05-24T00:42:17;94943.56;;;15.24;64.08
70127;BME280;57491;42.694;23.314;2023-05-24T00:44:46;94931.72;;;15.15;64.50
70127;BME280;57491;42.694;23.314;2023-05-24T00:47:14;94934.53;;;15.13;64.90
70127;BME280;57491;42.694;23.314;2023-05-24T00:49:41;94942.06;;;15.03;64.63
70127;BME280;57491;42.694;23.314;2023-05-24T00:52:09;94938.41;;;15.04;64.86
70127;BME280;57491;42.694;23.314;2023-05-24T00:54:36;94941.22;;;15.09;65.36
70127;BME280;57491;42.694;23.314;2023-05-24T00:57:05;94945.66;;;15.09;66.06
70127;BME280;57491;42.694;23.314;2023-05-24T00:59:32;94944.25;;;15.06;66.26
70127;BME280;57491;42.694;23.314;2023-05-24T01:02:01;94934.59;;;15.07;66.44
70127;BME280;57491;42.694;23.314;2023-05-24T01:04:29;94934.41;;;15.02;66.08
70127;BME280;57491;42.694;23.314;2023-05-24T01:07:17;94939.03;;;15.06;65.91
70127;BME280;57491;42.694;23.314;2023-05-24T01:10:01;94939.06;;;15.00;65.04
70127;BME280;57491;42.694;23.314;2023-05-24T01:12:35;94943.72;;;14.91;66.02
70127;BME280;57491;42.694;23.314;2023-05-24T01:15:13;94954.81;;;14.87;66.97
70127;BME280;57491;42.694;23.314;2023-05-24T01:17:52;94950.63;;;14.86;66.28
70127;BME280;57491;42.694;23.314;2023-05-24T01:20:21;94953.06;;;14.81;65.70
70127;BME280;57491;42.694;23.314;2023-05-24T01:23:03;94949.06;;;14.71;66.27
70127;BME280;57491;42.694;23.314;2023-05-24T01:25:59;94960.34;;;14.65;66.62
70127;BME280;57491;42.694;23.314;2023-05-24T01:28:30;94960.34;;;14.65;66.41
70127;BME280;57491;42.694;23.314;2023-05-24T01:30:59;94953.91;;;14.61;66.29
70127;BME280;57491;42.694;23.314;2023-05-24T01:33:27;94961.56;;;14.56;66.76
70127;BME280;57491;42.694;23.314;2023-05-24T01:35:54;94953.53;;;14.51;67.34
70127;BME280;57491;42.694;23.314;2023-05-24T01:38:21;94954.97;;;14.47;67.84
70127;BME280;57491;42.694;23.314;2023-05-24T01:40:51;94950.50;;;14.61;67.54
70127;BME280;57491;42.694;23.314;2023-05-24T01:43:23;94947.50;;;14.57;67.22
70127;BME280;57491;42.694;23.314;2023-05-24T01:46:01;94949.69;;;14.60;67.73
70127;BME280;57491;42.694;23.314;2023-05-24T01:48:35;94948.69;;;14.55;68.45
70127;BME280;57491;42.694;23.314;2023-05-24T01:51:06;94938.25;;;14.48;68.12
70127;BME280;57491;42.694;23.314;2023-05-24T01:53:41;94946.31;;;14.53;67.67
70127;BME280;57491;42.694;23.314;2023-05-24T01:56:11;94948.72;;;14.48;68.21
70127;BME280;57491;42.694;23.314;2023-05-24T01:58:40;94938.06;;;14.50;67.60
70127;BME280;57491;42.694;23.314;2023-05-24T02:01:10;94943.50;;;14.48;68.08
70127;BME280;57491;42.694;23.314;2023-05-24T02:03:39;94945.69;;;14.51;67.83
70127;BME280;57491;42.694;23.314;2023-05-24T02:06:06;94936.84;;;14.46;67.71
70127;BME280;57491;42.694;23.314;2023-05-24T02:08:35;94948.13;;;14.46;67.65
70127;BME280;57491;42.694;23.314;2023-05-24T02:11:02;94943.13;;;14.38;67.52
70127;BME280;57491;42.694;23.314;2023-05-24T02:13:29;94940.50;;;14.32;67.61
70127;BME280;57491;42.694;23.314;2023-05-24T02:15:56;94941.91;;;14.14;68.31
70127;BME280;57491;42.694;23.314;2023-05-24T02:18:24;94941.31;;;14.06;68.68
70127;BME280;57491;42.694;23.314;2023-05-24T02:20:51;94938.50;;;14.14;68.94
70127;BME280;57491;42.694;23.314;2023-05-24T02:23:18;94941.09;;;14.20;68.18
70127;BME280;57491;42.694;23.314;2023-05-24T02:25:45;94928.66;;;14.16;68.27
70127;BME280;57491;42.694;23.314;2023-05-24T02:28:12;94935.06;;;14.20;68.78
70127;BME280;57491;42.694;23.314;2023-05-24T02:30:39;94935.50;;;14.17;68.72
70127;BME280;57491;42.694;23.314;2023-05-24T02:33:09;94939.09;;;14.16;68.53
70127;BME280;57491;42.694;23.314;2023-05-24T02:35:38;94937.69;;;14.20;68.00
70127;BME280;57491;42.694;23.314;2023-05-24T02:38:06;94938.50;;;14.20;68.61
70127;BME280;57491;42.694;23.314;2023-05-24T02:40:34;94931.66;;;14.26;68.09
70127;BME280;57491;42.694;23.314;2023-05-24T02:43:01;94943.72;;;14.14;68.11
70127;BME280;57491;42.694;23.314;2023-05-24T02:45:28;94939.09;;;14.16;68.33
70127;BME280;57491;42.694;23.314;2023-05-24T02:47:55;94932.47;;;14.07;68.61
70127;BME280;57491;42.694;23.314;2023-05-24T02:50:22;94942.56;;;13.83;68.77
70127;BME280;57491;42.694;23.314;2023-05-24T02:52:50;94932.72;;;13.85;68.61
70127;BME280;57491;42.694;23.314;2023-05-24T02:55:17;94940.94;;;13.82;68.59
70127;BME280;57491;42.694;23.314;2023-05-24T02:57:44;94941.16;;;13.74;68.74
70127;BME280;57491;42.694;23.314;2023-05-24T03:00:13;94942.75;;;13.75;69.14
70127;BME280;57491;42.694;23.314;2023-05-24T03:02:41;94938.16;;;13.91;68.75
70127;BME280;57491;42.694;23.314;2023-05-24T03:05:08;94943.34;;;13.97;68.42
70127;BME280;57491;42.694;23.314;2023-05-24T03:07:35;94948.38;;;14.05;68.46
70127;BME280;57491;42.694;23.314;2023-05-24T03:10:04;94954.00;;;14.09;69.08
70127;BME280;57491;42.694;23.314;2023-05-24T03:12:31;94952.78;;;14.11;69.57
70127;BME280;57491;42.694;23.314;2023-05-24T03:14:58;94958.59;;;14.20;69.83
70127;BME280;57491;42.694;23.314;2023-05-24T03:17:26;94958.38;;;14.28;69.77
70127;BME280;57491;42.694;23.314;2023-05-24T03:19:53;94958.22;;;14.36;68.70
70127;BME280;57491;42.694;23.314;2023-05-24T03:22:20;94954.38;;;14.39;68.63
70127;BME280;57491;42.694;23.314;2023-05-24T03:24:47;94970.06;;;14.45;68.83
70127;BME280;57491;42.694;23.314;2023-05-24T03:27:15;94964.03;;;14.45;68.97
70127;BME280;57491;42.694;23.314;2023-05-24T03:29:43;94971.66;;;14.46;68.24
70127;BME280;57491;42.694;23.314;2023-05-24T03:32:10;94966.22;;;14.48;67.49
70127;BME280;57491;42.694;23.314;2023-05-24T03:34:37;94967.03;;;14.42;67.93
70127;BME280;57491;42.694;23.314;2023-05-24T03:37:04;94969.66;;;14.35;67.33
70127;BME280;57491;42.694;23.314;2023-05-24T03:39:31;94975.72;;;14.36;67.40
70127;BME280;57491;42.694;23.314;2023-05-24T03:41:58;94976.53;;;14.36;67.24
70127;BME280;57491;42.694;23.314;2023-05-24T03:44:26;94979.16;;;14.36;68.02
70127;BME280;57491;42.694;23.314;2023-05-24T03:46:53;94978.34;;;14.36;67.71
70127;BME280;57491;42.694;23.314;2023-05-24T03:49:20;94977.13;;;14.38;67.18
70127;BME280;57491;42.694;23.314;2023-05-24T03:51:47;94971.66;;;14.46;67.82
70127;BME280;57491;42.694;23.314;2023-05-24T03:54:14;94970.84;;;14.52;66.68
70127;BME280;57491;42.694;23.314;2023-05-24T03:56:42;94974.25;;;14.59;66.26
70127;BME280;57491;42.694;23.314;2023-05-24T03:59:09;94980.66;;;14.63;66.16
70127;BME280;57491;42.694;23.314;2023-05-24T04:01:37;94984.28;;;14.69;66.50
70127;BME280;57491;42.694;23.314;2023-05-24T04:04:05;94968.53;;;14.82;65.88
70127;BME280;57491;42.694;23.314;2023-05-24T04:06:32;94976.78;;;14.86;65.58
70127;BME280;57491;42.694;23.314;2023-05-24T04:09:01;94979.16;;;14.94;65.54
70127;BME280;57491;42.694;23.314;2023-05-24T04:11:30;94985.97;;;15.08;65.26
70127;BME280;57491;42.694;23.314;2023-05-24T04:13:57;94983.69;;;15.18;64.71
70127;BME280;57491;42.694;23.314;2023-05-24T04:16:25;94983.03;;;15.29;64.79
70127;BME280;57491;42.694;23.314;2023-05-24T04:18:55;94983.38;;;15.39;64.91
70127;BME280;57491;42.694;23.314;2023-05-24T04:21:22;94982.94;;;15.49;64.72
70127;BME280;57491;42.694;23.314;2023-05-24T04:23:49;94978.41;;;15.62;62.95
70127;BME280;57491;42.694;23.314;2023-05-24T04:26:16;94983.59;;;15.76;62.71
70127;BME280;57491;42.694;23.314;2023-05-24T04:28:43;94970.41;;;15.82;62.19
70127;BME280;57491;42.694;23.314;2023-05-24T04:31:11;94977.97;;;15.97;62.52
70127;BME280;57491;42.694;23.314;2023-05-24T04:33:38;94981.94;;;16.06;62.49
70127;BME280;57491;42.694;23.314;2023-05-24T04:36:07;94985.44;;;16.18;61.47
70127;BME280;57491;42.694;23.314;2023-05-24T04:38:36;94985.28;;;16.13;60.97
70127;BME280;57491;42.694;23.314;2023-05-24T04:41:04;94986.16;;;16.07;61.25
70127;BME280;57491;42.694;23.314;2023-05-24T04:43:31;94996.53;;;16.20;60.86
70127;BME280;57491;42.694;23.314;2023-05-24T04:45:58;95004.69;;;16.30;60.49
70127;BME280;57491;42.694;23.314;2023-05-24T04:48:25;95006.84;;;16.40;60.81
70127;BME280;57491;42.694;23.314;2023-05-24T04:50:53;94998.63;;;16.55;60.35
70127;BME280;57491;42.694;23.314;2023-05-24T04:53:22;94989.47;;;16.64;59.82
70127;BME280;57491;42.694;23.314;2023-05-24T04:55:50;95008.00;;;16.87;58.93
70127;BME280;57491;42.694;23.314;2023-05-24T04:58:17;94996.84;;;16.91;58.83
70127;BME280;57491;42.694;23.314;2023-05-24T05:00:45;95010.03;;;17.03;58.25
70127;BME280;57491;42.694;23.314;2023-05-24T05:03:12;95008.00;;;17.05;58.01
70127;BME280;57491;42.694;23.314;2023-05-24T05:05:39;95007.34;;;16.91;58.16
70127;BME280;57491;42.694;23.314;2023-05-24T05:08:06;95011.66;;;17.04;57.38
70127;BME280;57491;42.694;23.314;2023-05-24T05:10:36;95008.41;;;17.20;56.98
70127;BME280;57491;42.694;23.314;2023-05-24T05:13:03;95006.41;;;17.34;56.85
70127;BME280;57491;42.694;23.314;2023-05-24T05:15:30;95017.34;;;17.49;57.10
70127;BME280;57491;42.694;23.314;2023-05-24T05:17:57;95011.22;;;17.55;56.51
70127;BME280;57491;42.694;23.314;2023-05-24T05:20:24;95018.16;;;17.68;56.67
70127;BME280;57491;42.694;23.314;2023-05-24T05:22:51;95014.72;;;17.79;55.74
70127;BME280;57491;42.694;23.314;2023-05-24T05:25:18;95017.16;;;17.92;56.13
70127;BME280;57491;42.694;23.314;2023-05-24T05:27:47;95011.47;;;17.95;55.64
70127;BME280;57491;42.694;23.314;2023-05-24T05:30:14;95018.56;;;18.06;54.88
70127;BME280;57491;42.694;23.314;2023-05-24T05:32:41;95002.31;;;17.98;54.58
70127;BME280;57491;42.694;23.314;2023-05-24T05:35:08;95018.56;;;18.06;54.80
70127;BME280;57491;42.694;23.314;2023-05-24T05:37:35;95016.66;;;18.13;54.33
70127;BME280;57491;42.694;23.314;2023-05-24T05:40:03;95016.09;;;18.35;53.54
70127;BME280;57491;42.694;23.314;2023-05-24T05:42:30;95013.72;;;18.45;52.87
70127;BME280;57491;42.694;23.314;2023-05-24T05:44:58;95006.84;;;18.55;54.47
70127;BME280;57491;42.694;23.314;2023-05-24T05:47:25;95022.22;;;18.58;53.65
70127;BME280;57491;42.694;23.314;2023-05-24T05:49:52;95019.78;;;18.57;52.49
70127;BME280;57491;42.694;23.314;2023-05-24T05:52:19;95016.56;;;18.78;52.51
70127;BME280;57491;42.694;23.314;2023-05-24T05:54:46;95024.00;;;18.93;51.37
70127;BME280;57491;42.694;23.314;2023-05-24T05:57:13;95024.06;;;19.09;51.87
70127;BME280;57491;42.694;23.314;2023-05-24T05:59:40;95028.16;;;19.29;51.66
70127;BME280;57491;42.694;23.314;2023-05-24T06:02:09;95030.34;;;19.43;50.25
70127;BME280;57491;42.694;23.314;2023-05-24T06:04:37;95010.28;;;19.31;50.49
70127;BME280;57491;42.694;23.314;2023-05-24T06:07:04;95028.44;;;19.55;50.64
70127;BME280;57491;42.694;23.314;2023-05-24T06:09:31;95031.06;;;19.67;49.97
70127;BME280;57491;42.694;23.314;2023-05-24T06:11:58;95032.22;;;19.88;50.57
70127;BME280;57491;42.694;23.314;2023-05-24T06:14:25;95034.00;;;20.16;49.42
70127;BME280;57491;42.694;23.314;2023-05-24T06:16:52;95034.91;;;20.21;49.50
70127;BME280;57491;42.694;23.314;2023-05-24T06:19:21;95040.28;;;20.43;48.53
70127;BME280;57491;42.694;23.314;2023-05-24T06:21:48;95030.81;;;20.64;48.29
70127;BME280;57491;42.694;23.314;2023-05-24T06:24:17;95035.47;;;20.73;47.14
70127;BME280;57491;42.694;23.314;2023-05-24T06:26:45;95033.03;;;20.88;47.18
70127;BME280;57491;42.694;23.314;2023-05-24T06:29:12;95024.03;;;21.06;46.92
70127;BME280;57491;42.694;23.314;2023-05-24T06:31:39;95022.38;;;21.22;46.62
70127;BME280;57491;42.694;23.314;2023-05-24T06:34:06;95024.25;;;21.43;45.60
70127;BME280;57491;42.694;23.314;2023-05-24T06:36:35;95017.78;;;21.56;45.91
70127;BME280;57491;42.694;23.314;2023-05-24T06:39:06;95026.81;;;21.60;45.28
70127;BME280;57491;42.694;23.314;2023-05-24T06:41:33;95025.72;;;21.83;45.03
70127;BME280;57491;42.694;23.314;2023-05-24T06:44:00;95024.78;;;21.94;44.55
70127;BME280;57491;42.694;23.314;2023-05-24T06:46:27;95017.41;;;21.96;44.19
70127;BME280;57491;42.694;23.314;2023-05-24T06:48:54;95026.56;;;22.10;44.46
70127;BME280;57491;42.694;23.314;2023-05-24T06:51:21;95018.75;;;22.30;43.61
70127;BME280;57491;42.694;23.314;2023-05-24T06:53:50;95020.50;;;22.46;44.52
70127;BME280;57491;42.694;23.314;2023-05-24T06:56:17;95023.53;;;22.65;43.68
70127;BME280;57491;42.694;23.314;2023-05-24T06:58:44;95003.19;;;22.71;42.19
70127;BME280;57491;42.694;23.314;2023-05-24T07:01:12;95018.09;;;22.82;41.96
70127;BME280;57491;42.694;23.314;2023-05-24T07:03:39;95014.19;;;22.57;42.19
70127;BME280;57491;42.694;23.314;2023-05-24T07:06:07;95012.75;;;22.72;41.82
70127;BME280;57491;42.694;23.314;2023-05-24T07:08:34;95012.19;;;22.69;41.48
70127;BME280;57491;42.694;23.314;2023-05-24T07:11:03;95009.03;;;22.73;41.75
70127;BME280;57491;42.694;23.314;2023-05-24T07:13:30;95016.56;;;22.91;42.66
70127;BME280;57491;42.694;23.314;2023-05-24T07:15:58;95000.22;;;23.09;41.63
70127;BME280;57491;42.694;23.314;2023-05-24T07:18:25;95020.75;;;23.34;41.07
70127;BME280;57491;42.694;23.314;2023-05-24T07:20:52;95006.25;;;23.56;40.61
70127;BME280;57491;42.694;23.314;2023-05-24T07:23:19;95023.78;;;23.58;41.19
70127;BME280;57491;42.694;23.314;2023-05-24T07:25:46;95023.00;;;23.57;40.13
70127;BME280;57491;42.694;23.314;2023-05-24T07:28:15;95018.28;;;23.79;40.26
70127;BME280;57491;42.694;23.314;2023-05-24T07:30:44;95020.16;;;23.94;40.24
70127;BME280;57491;42.694;23.314;2023-05-24T07:33:14;95028.44;;;24.13;39.59
70127;BME280;57491;42.694;23.314;2023-05-24T07:35:42;95022.56;;;24.11;38.78
70127;BME280;57491;42.694;23.314;2023-05-24T07:38:10;95025.56;;;24.34;39.00
70127;BME280;57491;42.694;23.314;2023-05-24T07:40:37;95024.50;;;24.40;39.13
70127;BME280;57491;42.694;23.314;2023-05-24T07:43:04;95017.56;;;24.39;38.38
70127;BME280;57491;42.694;23.314;2023-05-24T07:45:32;95022.88;;;24.60;39.30
70127;BME280;57491;42.694;23.314;2023-05-24T07:48:00;95018.59;;;24.79;38.33
70127;BME280;57491;42.694;23.314;2023-05-24T07:50:27;95021.22;;;25.09;38.31
70127;BME280;57491;42.694;23.314;2023-05-24T07:52:55;95011.03;;;25.31;38.32
70127;BME280;57491;42.694;23.314;2023-05-24T07:55:22;95019.75;;;25.47;37.66
70127;BME280;57491;42.694;23.314;2023-05-24T07:57:49;95009.38;;;25.56;36.29
70127;BME280;57491;42.694;23.314;2023-05-24T08:00:17;95007.47;;;25.66;36.28
70127;BME280;57491;42.694;23.314;2023-05-24T08:02:46;95009.44;;;25.90;34.87
70127;BME280;57491;42.694;23.314;2023-05-24T08:05:14;95010.13;;;26.10;34.60
70127;BME280;57491;42.694;23.314;2023-05-24T08:07:41;95003.13;;;26.25;33.79
70127;BME280;57491;42.694;23.314;2023-05-24T08:10:09;94998.63;;;26.15;31.77
70127;BME280;57491;42.694;23.314;2023-05-24T08:12:37;95007.59;;;25.85;32.07
70127;BME280;57491;42.694;23.314;2023-05-24T08:15:05;95003.06;;;25.86;33.91
70127;BME280;57491;42.694;23.314;2023-05-24T08:17:32;95002.28;;;25.85;34.28
70127;BME280;57491;42.694;23.314;2023-05-24T08:20:00;95004.56;;;26.07;34.20
70127;BME280;57491;42.694;23.314;2023-05-24T08:22:31;95002.03;;;26.26;33.47
70127;BME280;57491;42.694;23.314;2023-05-24T08:24:58;94997.56;;;26.50;32.42
70127;BME280;57491;42.694;23.314;2023-05-24T08:27:25;94998.69;;;26.73;31.86
70127;BME280;57491;42.694;23.314;2023-05-24T08:29:53;94998.50;;;26.93;29.39
70127;BME280;57491;42.694;23.314;2023-05-24T08:32:20;95000.81;;;27.04;28.90
70127;BME280;57491;42.694;23.314;2023-05-24T08:34:47;95002.09;;;27.31;28.75
70127;BME280;57491;42.694;23.314;2023-05-24T08:37:15;94999.22;;;27.51;27.32
70127;BME280;57491;42.694;23.314;2023-05-24T08:39:45;94997.13;;;27.43;27.43
70127;BME280;57491;42.694;23.314;2023-05-24T08:42:12;94998.66;;;27.54;29.10
70127;BME280;57491;42.694;23.314;2023-05-24T08:44:43;94987.34;;;27.81;29.36
70127;BME280;57491;42.694;23.314;2023-05-24T08:47:11;94990.94;;;27.90;26.92
70127;BME280;57491;42.694;23.314;2023-05-24T08:49:39;94994.13;;;28.11;27.25
70127;BME280;57491;42.694;23.314;2023-05-24T08:52:07;95003.66;;;28.35;25.85
70127;BME280;57491;42.694;23.314;2023-05-24T08:54:37;94999.03;;;28.41;25.97
70127;BME280;57491;42.694;23.314;2023-05-24T08:57:05;94998.41;;;28.12;25.03
70127;BME280;57491;42.694;23.314;2023-05-24T08:59:32;94982.25;;;27.18;27.35
70127;BME280;57491;42.694;23.314;2023-05-24T09:02:01;94989.91;;;27.48;27.07
70127;BME280;57491;42.694;23.314;2023-05-24T09:04:29;94995.41;;;27.76;27.34
70127;BME280;57491;42.694;23.314;2023-05-24T09:06:57;94985.25;;;28.15;27.36
70127;BME280;57491;42.694;23.314;2023-05-24T09:09:26;94981.88;;;28.74;26.19
70127;BME280;57491;42.694;23.314;2023-05-24T09:11:57;94978.78;;;29.13;25.69
70127;BME280;57491;42.694;23.314;2023-05-24T09:14:28;94989.25;;;29.23;23.90
70127;BME280;57491;42.694;23.314;2023-05-24T09:16:55;94987.91;;;29.40;24.55
70127;BME280;57491;42.694;23.314;2023-05-24T09:19:22;94994.75;;;29.32;23.44
70127;BME280;57491;42.694;23.314;2023-05-24T09:21:49;94993.25;;;28.34;24.33
70127;BME280;57491;42.694;23.314;2023-05-24T09:24:17;95000.41;;;28.20;25.40
70127;BME280;57491;42.694;23.314;2023-05-24T09:26:47;94984.47;;;27.96;24.96
70127;BME280;57491;42.694;23.314;2023-05-24T09:29:21;94987.47;;;28.08;24.99
70127;BME280;57491;42.694;23.314;2023-05-24T09:31:49;94978.34;;;28.14;24.29
70127;BME280;57491;42.694;23.314;2023-05-24T09:34:21;94982.00;;;28.51;23.75
70127;BME280;57491;42.694;23.314;2023-05-24T09:36:48;94990.56;;;28.34;23.05
70127;BME280;57491;42.694;23.314;2023-05-24T09:39:17;94984.59;;;28.05;23.94
70127;BME280;57491;42.694;23.314;2023-05-24T09:41:51;94982.81;;;28.19;23.52
70127;BME280;57491;42.694;23.314;2023-05-24T09:44:24;94971.13;;;28.28;24.04
70127;BME280;57491;42.694;23.314;2023-05-24T09:46:52;94986.56;;;28.50;24.04
70127;BME280;57491;42.694;23.314;2023-05-24T09:49:20;94967.56;;;28.98;25.00
70127;BME280;57491;42.694;23.314;2023-05-24T09:51:47;94974.09;;;29.60;23.87
70127;BME280;57491;42.694;23.314;2023-05-24T09:54:14;94965.72;;;29.75;22.07
70127;BME280;57491;42.694;23.314;2023-05-24T09:56:41;94967.63;;;30.10;21.04
70127;BME280;57491;42.694;23.314;2023-05-24T09:59:08;94963.25;;;30.59;20.95
70127;BME280;57491;42.694;23.314;2023-05-24T10:01:37;94961.91;;;30.70;20.85
70127;BME280;57491;42.694;23.314;2023-05-24T10:04:04;94965.81;;;30.95;19.13
70127;BME280;57491;42.694;23.314;2023-05-24T10:06:34;94958.38;;;31.31;19.15
70127;BME280;57491;42.694;23.314;2023-05-24T10:09:03;94960.53;;;31.60;18.77
70127;BME280;57491;42.694;23.314;2023-05-24T10:11:35;94957.72;;;31.82;18.95
70127;BME280;57491;42.694;23.314;2023-05-24T10:14:03;94959.94;;;31.89;19.38
70127;BME280;57491;42.694;23.314;2023-05-24T10:16:31;94957.75;;;31.34;18.94
70127;BME280;57491;42.694;23.314;2023-05-24T10:18:59;94955.31;;;30.85;19.96
70127;BME280;57491;42.694;23.314;2023-05-24T10:21:28;94960.91;;;30.58;20.96
70127;BME280;57491;42.694;23.314;2023-05-24T10:24:01;94953.97;;;29.21;21.71
70127;BME280;57491;42.694;23.314;2023-05-24T10:26:31;94950.88;;;29.55;21.49
70127;BME280;57491;42.694;23.314;2023-05-24T10:29:00;94949.66;;;29.89;21.82
70127;BME280;57491;42.694;23.314;2023-05-24T10:31:31;94954.44;;;30.67;21.42
70127;BME280;57491;42.694;23.314;2023-05-24T10:34:02;94946.13;;;31.08;20.58
70127;BME280;57491;42.694;23.314;2023-05-24T10:36:31;94945.78;;;31.49;19.38
70127;BME280;57491;42.694;23.314;2023-05-24T10:38:59;94940.50;;;31.83;19.88
70127;BME280;57491;42.694;23.314;2023-05-24T10:41:28;94942.53;;;32.21;20.20
70127;BME280;57491;42.694;23.314;2023-05-24T10:43:55;94940.34;;;32.31;19.07
70127;BME280;57491;42.694;23.314;2023-05-24T10:46:23;94936.16;;;32.51;19.36
70127;BME280;57491;42.694;23.314;2023-05-24T10:49:01;94928.81;;;32.86;18.81
70127;BME280;57491;42.694;23.314;2023-05-24T10:51:32;94930.06;;;32.89;18.13
70127;BME280;57491;42.694;23.314;2023-05-24T10:54:13;94931.09;;;32.67;18.46
70127;BME280;57491;42.694;23.314;2023-05-24T10:56:43;94925.59;;;32.29;19.31
70127;BME280;57491;42.694;23.314;2023-05-24T10:59:22;94915.44;;;32.43;18.84
70127;BME280;57491;42.694;23.314;2023-05-24T11:01:56;94912.13;;;32.46;18.83
70127;BME280;57491;42.694;23.314;2023-05-24T11:04:30;94921.16;;;32.50;18.44
70127;BME280;57491;42.694;23.314;2023-05-24T11:07:00;94921.75;;;32.73;18.71
70127;BME280;57491;42.694;23.314;2023-05-24T11:09:28;94911.56;;;32.87;18.73
70127;BME280;57491;42.694;23.314;2023-05-24T11:11:59;94912.72;;;33.07;18.05
70127;BME280;57491;42.694;23.314;2023-05-24T11:14:29;94902.56;;;33.12;18.16
70127;BME280;57491;42.694;23.314;2023-05-24T11:16:57;94908.25;;;33.19;19.10
70127;BME280;57491;42.694;23.314;2023-05-24T11:19:32;94907.22;;;33.33;18.96
70127;BME280;57491;42.694;23.314;2023-05-24T11:22:01;94904.06;;;33.31;17.44
70127;BME280;57491;42.694;23.314;2023-05-24T11:24:29;94909.59;;;33.34;17.82
70127;BME280;57491;42.694;23.314;2023-05-24T11:26:59;94908.44;;;33.44;17.83
70127;BME280;57491;42.694;23.314;2023-05-24T11:29:27;94914.44;;;33.11;18.07
70127;BME280;57491;42.694;23.314;2023-05-24T11:31:56;94900.22;;;33.02;18.37
70127;BME280;57491;42.694;23.314;2023-05-24T11:34:25;94904.09;;;32.84;18.09
70127;BME280;57491;42.694;23.314;2023-05-24T11:36:54;94899.47;;;32.38;18.80
70127;BME280;57491;42.694;23.314;2023-05-24T11:39:21;94896.94;;;32.42;18.73
70127;BME280;57491;42.694;23.314;2023-05-24T11:41:52;94890.34;;;32.22;18.71
70127;BME280;57491;42.694;23.314;2023-05-24T11:44:21;94893.34;;;31.69;19.53
70127;BME280;57491;42.694;23.314;2023-05-24T11:46:48;94885.91;;;31.57;19.76
70127;BME280;57491;42.694;23.314;2023-05-24T11:49:15;94886.38;;;32.02;20.08
70127;BME280;57491;42.694;23.314;2023-05-24T11:51:43;94889.38;;;31.75;19.59
70127;BME280;57491;42.694;23.314;2023-05-24T11:54:11;94880.31;;;31.19;19.73
70127;BME280;57491;42.694;23.314;2023-05-24T11:56:38;94870.50;;;31.15;20.33
70127;BME280;57491;42.694;23.314;2023-05-24T11:59:08;94876.56;;;31.55;20.32
70127;BME280;57491;42.694;23.314;2023-05-24T12:01:37;94876.44;;;31.60;19.05
70127;BME280;57491;42.694;23.314;2023-05-24T12:04:05;94872.28;;;31.45;19.14
70127;BME280;57491;42.694;23.314;2023-05-24T12:06:35;94869.88;;;31.35;18.90
70127;BME280;57491;42.694;23.314;2023-05-24T12:09:04;94877.63;;;31.19;19.24
70127;BME280;57491;42.694;23.314;2023-05-24T12:11:38;94869.53;;;30.71;19.74
70127;BME280;57491;42.694;23.314;2023-05-24T12:14:09;94868.31;;;30.86;20.18
70127;BME280;57491;42.694;23.314;2023-05-24T12:16:38;94868.97;;;30.83;20.48
70127;BME280;57491;42.694;23.314;2023-05-24T12:19:05;94866.56;;;30.81;19.55
70127;BME280;57491;42.694;23.314;2023-05-24T12:21:32;94860.66;;;30.31;20.06
70127;BME280;57491;42.694;23.314;2023-05-24T12:24:13;94852.34;;;30.10;20.45
70127;BME280;57491;42.694;23.314;2023-05-24T12:26:42;94851.25;;;30.11;21.17
70127;BME280;57491;42.694;23.314;2023-05-24T12:29:10;94849.53;;;30.16;21.57
70127;BME280;57491;42.694;23.314;2023-05-24T12:31:39;94845.31;;;30.23;22.56
70127;BME280;57491;42.694;23.314;2023-05-24T12:34:10;94839.06;;;30.36;22.35
70127;BME280;57491;42.694;23.314;2023-05-24T12:36:37;94834.03;;;30.35;21.39
70127;BME280;57491;42.694;23.314;2023-05-24T12:39:17;94843.66;;;30.44;21.43
70127;BME280;57491;42.694;23.314;2023-05-24T12:41:48;94839.94;;;30.23;21.00
70127;BME280;57491;42.694;23.314;2023-05-24T12:44:15;94834.16;;;29.99;21.01
70127;BME280;57491;42.694;23.314;2023-05-24T12:46:42;94835.28;;;29.84;20.91
70127;BME280;57491;42.694;23.314;2023-05-24T12:49:10;94839.34;;;29.59;21.74
70127;BME280;57491;42.694;23.314;2023-05-24T12:51:37;94835.44;;;29.65;21.77
70127;BME280;57491;42.694;23.314;2023-05-24T12:54:04;94830.44;;;29.73;23.17
70127;BME280;57491;42.694;23.314;2023-05-24T12:56:31;94831.47;;;29.99;22.34